Time;durP1;ratioP1;P1;durP2;ratioP2;P2;SDS_P1;SDS_P2;PMS_P1;PMS_P2;Temp;Humidity;BMP_temperature;BMP_pressure;BME280_temperature;BME280_humidity;BME280_pressure;Samples;Min_cycle;Max_cycle;Signal;HPM_P1;HPM_P2
2023/04/16 00:00:08;;;;;;;27.65;10.45;;;8.30;99.90;;;;;;5003396;28;20041;-75
2023/04/16 00:02:35;;;;;;;26.70;10.03;;;8.30;99.90;;;;;;5017936;28;20389;-73
2023/04/16 00:05:02;;;;;;;22.45;8.85;;;8.30;99.90;;;;;;5015573;28;20053;-75
2023/04/16 00:07:29;;;;;;;26.35;9.48;;;8.30;99.90;;;;;;5031180;28;20147;-77
2023/04/16 00:09:55;;;;;;;21.33;9.05;;;8.30;99.90;;;;;;5018747;28;20061;-75
2023/04/16 00:12:23;;;;;;;23.42;9.05;;;8.30;99.90;;;;;;5003689;28;20116;-76
2023/04/16 00:14:49;;;;;;;24.90;9.60;;;8.30;99.90;;;;;;5005731;28;20420;-74
2023/04/16 00:17:37;;;;;;;24.25;9.63;;;8.30;99.90;;;;;;5017641;28;20053;-76
2023/04/16 00:20:16;;;;;;;;;;;8.30;99.90;;;;;;5038879;28;20052;-77
2023/04/16 00:22:47;;;;;;;20.70;10.07;;;8.30;99.90;;;;;;5038335;28;19924;-74
2023/04/16 00:25:22;;;;;;;31.00;11.32;;;8.30;99.90;;;;;;5023857;28;21767;-75
2023/04/16 00:27:47;;;;;;;28.23;9.68;;;8.30;99.90;;;;;;5006475;28;20045;-75
2023/04/16 00:30:15;;;;;;;25.48;9.57;;;8.30;99.90;;;;;;5022866;28;20049;-75
2023/04/16 00:32:43;;;;;;;22.58;8.18;;;8.30;99.90;;;;;;5008228;28;20045;-74
2023/04/16 00:35:10;;;;;;;22.38;8.85;;;8.30;99.90;;;;;;5005938;28;20443;-74
2023/04/16 00:37:39;;;;;;;26.13;8.63;;;8.30;99.90;;;;;;5020983;28;20048;-76
2023/04/16 00:40:07;;;;;;;23.48;8.52;;;8.30;99.90;;;;;;5005185;28;20809;-75
2023/04/16 00:42:35;;;;;;;22.92;7.60;;;8.30;99.90;;;;;;5001058;28;20065;-76
2023/04/16 00:45:23;;;;;;;14.18;6.78;;;8.30;99.90;;;;;;5020387;28;20507;-74
2023/04/16 00:48:07;;;;;;;18.40;7.10;;;8.30;99.90;;;;;;5020968;28;20173;-75
2023/04/16 00:50:33;;;;;;;15.63;7.00;;;8.30;99.90;;;;;;4999775;28;20041;-75
2023/04/16 00:53:01;;;;;;;17.25;8.05;;;8.20;99.90;;;;;;5021040;28;20053;-75
2023/04/16 00:55:28;;;;;;;18.85;6.97;;;8.30;99.90;;;;;;5015798;28;20118;-76
2023/04/16 00:57:55;;;;;;;15.45;6.93;;;8.30;99.90;;;;;;5004874;28;20451;-75
2023/04/16 01:00:22;;;;;;;18.15;6.15;;;8.30;99.90;;;;;;5005300;28;20508;-78
2023/04/16 01:02:56;;;;;;;16.23;6.47;;;8.30;99.90;;;;;;5033674;28;20259;-77
2023/04/16 01:05:23;;;;;;;20.40;7.22;;;8.20;99.90;;;;;;5020148;28;20054;-75
2023/04/16 01:08:00;;;;;;;19.30;7.25;;;8.30;99.90;;;;;;5004145;28;20183;-77
2023/04/16 01:10:28;;;;;;;16.92;6.65;;;8.30;99.90;;;;;;5017267;28;20136;-74
2023/04/16 01:13:03;;;;;;;20.65;6.78;;;8.20;99.90;;;;;;5034859;28;20103;-75
2023/04/16 01:15:42;;;;;;;20.92;8.90;;;8.20;99.90;;;;;;5006075;28;20046;-75
2023/04/16 01:18:21;;;;;;;19.20;8.57;;;8.20;99.90;;;;;;5017498;28;20133;-75
2023/04/16 01:20:52;;;;;;;20.90;8.23;;;8.30;99.90;;;;;;5020149;28;20313;-75
2023/04/16 01:24:02;;;;;;;20.67;7.93;;;8.20;99.90;;;;;;5019150;28;20056;-75
2023/04/16 01:26:34;;;;;;;24.70;8.43;;;8.20;99.90;;;;;;5017438;28;20052;-76
2023/04/16 01:29:05;;;;;;;18.55;8.02;;;8.30;99.90;;;;;;5018772;28;20428;-74
2023/04/16 01:31:41;;;;;;;19.35;8.35;;;8.20;99.90;;;;;;5004443;28;20164;-75
2023/04/16 01:34:07;;;;;;;23.92;8.07;;;8.30;99.90;;;;;;5018358;28;20049;-75
2023/04/16 01:36:40;;;;;;;30.88;8.88;;;8.30;99.90;;;;;;5001729;28;20532;-75
2023/04/16 01:41:58;;;;;;;21.92;9.15;;;8.30;99.90;;;;;;5017339;28;20508;-74
2023/04/16 01:44:24;;;;;;;20.85;8.13;;;8.30;99.90;;;;;;4984038;28;20041;-76
2023/04/16 01:46:53;;;;;;;20.13;8.40;;;8.20;99.90;;;;;;5035767;28;20919;-75
2023/04/16 01:49:24;;;;;;;27.10;8.75;;;8.30;99.90;;;;;;5020906;28;20037;-74
2023/04/16 01:52:09;;;;;;;18.25;8.23;;;8.30;99.90;;;;;;5020727;28;20055;-76
2023/04/16 01:54:34;;;;;;;21.90;8.70;;;8.30;99.90;;;;;;5016008;28;20058;-75
2023/04/16 01:57:05;;;;;;;25.13;8.82;;;8.30;99.90;;;;;;5001398;28;20050;-76
2023/04/16 01:59:31;;;;;;;27.80;9.20;;;8.30;99.90;;;;;;5005230;28;20068;-76
2023/04/16 02:02:07;;;;;;;24.95;9.80;;;8.30;99.90;;;;;;5015263;28;20136;-74
2023/04/16 02:04:41;;;;;;;19.58;8.35;;;8.30;99.90;;;;;;5020044;28;21066;-76
2023/04/16 02:07:10;;;;;;;24.58;9.55;;;8.30;99.90;;;;;;5016724;28;20041;-76
2023/04/16 02:09:40;;;;;;;20.45;9.27;;;8.30;99.90;;;;;;5017729;28;20128;-75
2023/04/16 02:12:10;;;;;;;21.48;8.77;;;8.30;99.90;;;;;;5001889;28;20050;-76
2023/04/16 02:14:50;;;;;;;22.67;9.45;;;8.30;99.90;;;;;;5017892;28;20070;-77
2023/04/16 02:17:28;;;;;;;23.33;9.85;;;8.10;99.90;;;;;;5004573;28;20050;-75
2023/04/16 02:19:54;;;;;;;22.50;9.82;;;8.30;99.90;;;;;;5016611;28;20128;-75
2023/04/16 02:22:28;;;;;;;23.70;9.70;;;8.30;99.90;;;;;;5004377;28;20546;-75
2023/04/16 02:25:05;;;;;;;21.52;8.80;;;8.30;99.90;;;;;;5034938;28;20064;-76
2023/04/16 02:27:49;;;;;;;28.92;9.52;;;8.30;99.90;;;;;;5033272;28;20049;-77
2023/04/16 02:30:16;;;;;;;22.90;9.95;;;8.30;99.90;;;;;;5018037;28;20057;-78
2023/04/16 02:32:50;;;;;;;21.40;9.48;;;8.30;99.90;;;;;;5020880;28;20077;-75
2023/04/16 02:35:17;;;;;;;23.75;10.35;;;8.30;99.90;;;;;;5018686;28;20532;-75
2023/04/16 02:37:47;;;;;;;27.45;11.13;;;8.30;99.90;;;;;;5018578;28;20508;-75
2023/04/16 02:40:14;;;;;;;21.25;10.55;;;8.30;99.90;;;;;;5018405;28;20095;-75
2023/04/16 02:42:46;;;;;;;26.55;11.23;;;8.30;99.90;;;;;;5004993;28;20160;-77
2023/04/16 02:45:12;;;;;;;26.70;11.50;;;8.30;99.90;;;;;;5002299;28;20049;-74
2023/04/16 02:47:47;;;;;;;32.80;13.57;;;7.60;99.90;;;;;;5018749;28;20095;-75
2023/04/16 02:50:23;;;;;;;32.88;12.90;;;8.30;99.90;;;;;;5033882;28;20083;-75
2023/04/16 02:52:50;;;;;;;34.10;13.10;;;8.40;99.90;;;;;;4998958;28;20057;-75
2023/04/16 02:55:20;;;;;;;33.63;13.85;;;8.30;99.90;;;;;;5003444;28;20488;-75
2023/04/16 02:57:47;;;;;;;28.27;13.60;;;8.30;99.90;;;;;;4998057;28;20038;-75
2023/04/16 03:00:18;;;;;;;28.48;12.70;;;8.10;99.90;;;;;;5018953;28;20045;-75
2023/04/16 03:02:47;;;;;;;26.30;13.30;;;8.30;99.90;;;;;;5002712;28;20038;-75
2023/04/16 03:05:16;;;;;;;28.92;14.95;;;8.40;99.90;;;;;;5033232;28;20480;-74
2023/04/16 03:07:45;;;;;;;24.27;13.75;;;8.40;99.90;;;;;;5014740;28;20057;-76
2023/04/16 03:10:15;;;;;;;33.13;15.68;;;8.40;99.90;;;;;;5017958;28;20860;-75
2023/04/16 03:13:11;;;;;;;34.65;14.13;;;8.40;99.90;;;;;;5000619;28;20059;-77
2023/04/16 03:15:57;;;;;;;27.33;12.60;;;8.40;99.90;;;;;;5016958;28;20225;-77
2023/04/16 03:18:23;;;;;;;27.90;12.35;;;8.40;99.90;;;;;;5017870;28;20099;-76
2023/04/16 03:20:55;;;;;;;23.55;11.68;;;8.40;99.90;;;;;;4997409;28;20061;-77
2023/04/16 03:23:22;;;;;;;25.75;11.88;;;8.40;99.90;;;;;;5018847;28;20416;-76
2023/04/16 03:25:50;;;;;;;28.42;12.38;;;6.80;99.90;;;;;;5002953;28;20046;-76
2023/04/16 03:28:36;;;;;;;35.63;11.82;;;8.40;99.90;;;;;;5001785;28;20260;-74
2023/04/16 03:31:20;;;;;;;34.70;12.98;;;8.40;99.90;;;;;;5002092;28;20492;-77
2023/04/16 03:33:47;;;;;;;33.28;12.77;;;7.40;99.90;;;;;;5001593;28;20063;-76
2023/04/16 03:36:26;;;;;;;35.63;13.25;;;8.40;99.90;;;;;;5017806;28;20778;-74
2023/04/16 03:39:07;;;;;;;36.88;15.38;;;8.40;99.90;;;;;;5001026;28;20045;-76
2023/04/16 03:42:11;;;;;;;39.13;15.52;;;8.40;99.90;;;;;;5028532;28;20959;-76
2023/04/16 03:44:37;;;;;;;35.95;17.73;;;8.40;99.90;;;;;;5030066;28;20045;-77
2023/04/16 03:47:05;;;;;;;41.08;17.23;;;8.40;99.90;;;;;;5033393;28;20681;-75
2023/04/16 03:49:44;;;;;;;42.20;17.95;;;8.40;99.90;;;;;;5016246;28;20049;-76
2023/04/16 03:52:22;;;;;;;35.42;15.68;;;8.40;99.90;;;;;;5014331;28;20180;-77
2023/04/16 03:54:49;;;;;;;37.10;14.93;;;8.40;99.90;;;;;;4998929;28;20123;-75
2023/04/16 03:57:20;;;;;;;29.02;14.25;;;8.40;99.90;;;;;;5006455;28;20053;-76
2023/04/16 03:59:53;;;;;;;38.90;15.35;;;8.40;99.90;;;;;;5003553;28;20056;-74
2023/04/16 04:02:26;;;;;;;33.58;14.25;;;8.40;99.90;;;;;;5015012;28;20858;-75
2023/04/16 04:05:11;;;;;;;32.05;14.80;;;8.30;99.90;;;;;;5016530;28;20044;-75
2023/04/16 04:07:37;;;;;;;34.70;15.25;;;8.30;99.90;;;;;;4984683;28;20050;-76
2023/04/16 04:10:03;;;;;;;35.65;15.82;;;8.40;99.90;;;;;;5002042;28;20046;-76
2023/04/16 04:12:29;;;;;;;32.85;14.60;;;8.30;99.90;;;;;;5015208;28;20045;-76
2023/04/16 04:15:01;;;;;;;41.60;14.80;;;8.30;99.90;;;;;;5000070;28;20045;-77
2023/04/16 04:17:27;;;;;;;37.08;14.85;;;8.30;99.90;;;;;;5001686;28;20056;-77
2023/04/16 04:19:52;;;;;;;36.92;14.70;;;8.40;99.90;;;;;;4999277;28;20041;-75
2023/04/16 04:22:18;;;;;;;37.33;14.80;;;8.40;99.90;;;;;;4997134;28;20087;-77
2023/04/16 04:24:46;;;;;;;37.40;15.23;;;8.40;99.90;;;;;;4994867;28;20155;-75
2023/04/16 04:27:12;;;;;;;42.03;15.60;;;8.30;99.90;;;;;;4995752;28;20042;-74
2023/04/16 04:29:37;;;;;;;40.60;14.63;;;7.90;99.90;;;;;;4998664;28;20048;-75
2023/04/16 04:32:03;;;;;;;37.15;12.73;;;8.40;99.90;;;;;;4999855;28;20053;-77
2023/04/16 04:34:47;;;;;;;35.45;13.68;;;8.40;99.90;;;;;;5016315;28;20098;-75
2023/04/16 04:37:12;;;;;;;35.38;14.32;;;8.30;99.90;;;;;;5015845;28;20412;-76
2023/04/16 04:39:41;;;;;;;37.17;13.90;;;8.30;99.90;;;;;;5016788;28;20064;-75
2023/04/16 04:42:09;;;;;;;37.75;13.57;;;8.30;99.90;;;;;;4999158;28;20054;-77
2023/04/16 04:44:37;;;;;;;40.42;14.88;;;7.30;99.90;;;;;;5001762;28;20065;-75
2023/04/16 04:47:04;;;;;;;41.03;14.88;;;8.30;99.90;;;;;;5014529;28;20587;-75
2023/04/16 04:49:32;;;;;;;48.65;15.02;;;8.30;99.90;;;;;;5001081;28;20069;-75
2023/04/16 04:52:11;;;;;;;40.15;15.02;;;8.30;99.90;;;;;;5029276;28;20041;-75
2023/04/16 04:54:58;;;;;;;36.63;15.15;;;9.00;99.90;;;;;;4999009;28;20056;-75
2023/04/16 04:57:40;;;;;;;33.75;13.20;;;8.40;99.90;;;;;;5014371;28;20045;-74
2023/04/16 05:00:10;;;;;;;37.67;12.88;;;8.30;99.90;;;;;;5032264;28;20041;-75
2023/04/16 05:02:42;;;;;;;35.72;13.02;;;8.40;99.90;;;;;;5002314;28;20056;-76
2023/04/16 05:05:11;;;;;;;29.73;11.35;;;8.30;99.90;;;;;;5018316;28;20046;-76
2023/04/16 05:07:37;;;;;;;25.70;12.43;;;8.30;99.90;;;;;;5001825;28;20041;-76
2023/04/16 05:10:04;;;;;;;26.27;10.90;;;8.30;99.90;;;;;;5018875;28;21225;-75
2023/04/16 05:12:30;;;;;;;28.48;11.77;;;8.30;99.90;;;;;;5002676;28;20049;-75
2023/04/16 05:14:57;;;;;;;20.95;10.30;;;8.30;99.90;;;;;;5016829;28;20518;-76
2023/04/16 05:17:25;;;;;;;29.40;10.98;;;8.30;99.90;;;;;;5017488;28;20065;-75
2023/04/16 05:19:51;;;;;;;21.13;10.63;;;8.30;99.90;;;;;;5017967;28;20132;-75
2023/04/16 05:22:29;;;;;;;25.48;9.90;;;8.30;99.90;;;;;;5017999;28;20057;-75
2023/04/16 05:24:56;;;;;;;28.13;9.98;;;8.30;99.90;;;;;;5018028;28;20115;-76
2023/04/16 05:27:24;;;;;;;25.88;11.05;;;8.40;99.90;;;;;;5019172;28;20037;-76
2023/04/16 05:30:01;;;;;;;26.23;10.20;;;8.40;99.90;;;;;;5020523;28;20057;-74
2023/04/16 05:32:27;;;;;;;29.10;10.32;;;8.40;99.90;;;;;;5002098;28;20049;-76
2023/04/16 05:34:56;;;;;;;22.58;10.45;;;8.40;99.90;;;;;;5014907;28;20045;-75
2023/04/16 05:37:30;;;;;;;22.65;9.38;;;8.40;99.90;;;;;;5017820;28;20053;-74
2023/04/16 05:39:59;;;;;;;26.27;9.50;;;8.40;99.90;;;;;;5019765;28;20128;-74
2023/04/16 05:42:31;;;;;;;22.35;9.68;;;8.40;99.90;;;;;;5020347;28;20139;-76
2023/04/16 05:45:01;;;;;;;22.60;8.93;;;8.40;99.90;;;;;;5018457;28;20575;-76
2023/04/16 05:47:31;;;;;;;26.02;9.60;;;8.40;99.90;;;;;;5003997;28;20052;-75
2023/04/16 05:50:02;;;;;;;24.88;10.60;;;8.40;99.90;;;;;;5021084;28;20076;-74
2023/04/16 05:52:29;;;;;;;23.73;10.10;;;8.40;99.90;;;;;;5016755;28;20095;-75
2023/04/16 05:55:06;;;;;;;28.67;9.43;;;8.40;99.90;;;;;;5019005;28;20143;-75
2023/04/16 05:57:32;;;;;;;31.83;10.90;;;8.40;99.90;;;;;;5015484;28;20140;-76
2023/04/16 06:00:02;;;;;;;27.58;9.80;;;8.40;99.90;;;;;;5020227;28;20085;-76
2023/04/16 06:02:30;;;;;;;25.20;10.80;;;8.40;99.90;;;;;;5020089;28;20130;-75
2023/04/16 06:05:16;;;;;;;29.60;11.30;;;8.40;99.90;;;;;;5004268;28;20098;-74
2023/04/16 06:07:42;;;;;;;27.38;10.25;;;8.50;99.90;;;;;;5020746;28;20060;-75
2023/04/16 06:10:08;;;;;;;26.77;11.48;;;8.50;99.90;;;;;;5019820;28;20698;-75
2023/04/16 06:12:36;;;;;;;29.92;11.77;;;8.50;99.90;;;;;;4980650;28;20195;-76
2023/04/16 06:15:04;;;;;;;26.08;10.82;;;8.50;99.90;;;;;;5017434;28;20050;-76
2023/04/16 06:17:30;;;;;;;26.08;9.65;;;8.50;99.90;;;;;;5013770;28;20095;-75
2023/04/16 06:19:56;;;;;;;18.63;8.52;;;8.50;99.90;;;;;;5019058;28;20221;-77
2023/04/16 06:22:23;;;;;;;23.55;9.25;;;8.50;99.90;;;;;;5005486;28;20053;-76
2023/04/16 06:24:49;;;;;;;18.27;7.97;;;8.60;99.90;;;;;;5001981;28;20583;-76
2023/04/16 06:27:15;;;;;;;22.65;9.23;;;8.50;99.90;;;;;;5017002;28;20041;-77
2023/04/16 06:29:41;;;;;;;25.10;9.20;;;8.50;99.90;;;;;;5002850;28;20059;-76
2023/04/16 06:32:18;;;;;;;20.98;9.27;;;8.50;99.90;;;;;;5022973;28;20052;-77
2023/04/16 06:34:44;;;;;;;24.40;9.85;;;8.50;99.90;;;;;;5008928;28;20046;-79
2023/04/16 06:37:11;;;;;;;24.00;9.48;;;8.50;99.90;;;;;;5021569;28;20131;-76
2023/04/16 06:39:37;;;;;;;25.23;8.93;;;8.60;99.90;;;;;;5020801;28;20053;-77
2023/04/16 06:42:03;;;;;;;23.08;8.88;;;8.60;99.90;;;;;;5018781;28;20046;-78
2023/04/16 06:44:30;;;;;;;19.77;9.82;;;8.60;99.90;;;;;;5017134;28;20045;-78
2023/04/16 06:46:56;;;;;;;20.02;10.00;;;8.60;99.90;;;;;;5016673;28;20046;-75
2023/04/16 06:49:29;;;;;;;22.15;9.80;;;8.60;99.90;;;;;;5016982;28;20465;-77
2023/04/16 06:52:07;;;;;;;21.80;10.15;;;8.60;99.90;;;;;;5033477;28;20072;-73
2023/04/16 06:54:38;;;;;;;17.08;9.32;;;8.60;99.90;;;;;;5003746;28;20046;-76
2023/04/16 06:57:07;;;;;;;24.95;11.43;;;8.60;99.90;;;;;;5029872;28;20057;-74
2023/04/16 06:59:39;;;;;;;22.77;10.63;;;8.60;99.90;;;;;;5018784;28;20049;-76
2023/04/16 07:02:07;;;;;;;20.92;9.60;;;8.70;99.90;;;;;;4982347;28;20092;-74
2023/04/16 07:04:33;;;;;;;22.17;10.18;;;8.70;99.90;;;;;;5004233;28;20104;-75
2023/04/16 07:07:05;;;;;;;23.00;10.13;;;8.70;99.90;;;;;;5005945;28;20041;-75
2023/04/16 07:09:33;;;;;;;23.40;9.68;;;8.70;99.90;;;;;;5004602;28;20046;-76
2023/04/16 07:12:01;;;;;;;20.35;9.88;;;8.00;99.90;;;;;;5034780;28;20061;-75
2023/04/16 07:14:34;;;;;;;27.80;10.63;;;8.70;99.90;;;;;;4991170;28;20542;-75
2023/04/16 07:17:01;;;;;;;23.73;10.82;;;8.70;99.90;;;;;;5019615;28;20049;-76
2023/04/16 07:19:36;;;;;;;24.60;11.25;;;8.70;99.90;;;;;;5002334;28;20053;-75
2023/04/16 07:22:16;;;;;;;26.13;10.80;;;8.80;99.90;;;;;;5018647;28;20068;-75
2023/04/16 07:24:48;;;;;;;28.88;10.25;;;8.80;99.90;;;;;;5018342;28;20064;-74
2023/04/16 07:27:22;;;;;;;23.58;11.00;;;8.80;99.90;;;;;;5020672;28;20125;-75
2023/04/16 07:29:49;;;;;;;27.42;11.07;;;8.80;99.90;;;;;;5018475;28;20152;-76
2023/04/16 07:32:16;;;;;;;28.33;12.13;;;8.80;99.90;;;;;;4987245;28;20395;-76
2023/04/16 07:34:42;;;;;;;28.48;11.52;;;8.90;99.90;;;;;;4997939;28;20053;-79
2023/04/16 07:37:14;;;;;;;32.88;12.18;;;8.90;99.90;;;;;;5020383;28;20059;-77
2023/04/16 07:39:42;;;;;;;27.73;11.90;;;8.90;99.90;;;;;;5018033;28;20049;-75
2023/04/16 07:42:20;;;;;;;27.60;11.57;;;8.90;99.90;;;;;;5019712;28;20488;-76
2023/04/16 07:44:47;;;;;;;24.30;10.95;;;9.00;99.90;;;;;;5017970;28;20053;-75
2023/04/16 07:47:16;;;;;;;23.17;11.23;;;9.00;99.90;;;;;;5014049;28;20044;-75
2023/04/16 07:49:49;;;;;;;29.73;12.23;;;9.00;99.90;;;;;;4999941;28;20056;-76
2023/04/16 07:52:22;;;;;;;26.40;12.85;;;9.00;99.90;;;;;;5015244;28;20107;-76
2023/04/16 07:54:48;;;;;;;27.02;12.50;;;9.00;99.90;;;;;;5017048;28;20049;-81
2023/04/16 07:57:15;;;;;;;28.52;13.30;;;9.00;99.90;;;;;;5018027;28;20057;-80
2023/04/16 07:59:41;;;;;;;23.27;11.48;;;9.00;99.90;;;;;;5015281;28;20056;-80
2023/04/16 08:02:12;;;;;;;30.48;13.02;;;9.10;99.90;;;;;;5016062;28;20045;-79
2023/04/16 08:04:38;;;;;;;27.63;12.50;;;9.10;99.90;;;;;;4999111;28;20045;-79
2023/04/16 08:07:03;;;;;;;27.65;11.73;;;9.10;99.90;;;;;;5020183;28;20542;-79
2023/04/16 08:09:29;;;;;;;32.42;12.73;;;9.10;99.90;;;;;;5017784;28;20106;-80
2023/04/16 08:11:55;;;;;;;28.38;12.32;;;9.20;99.90;;;;;;5019030;28;20513;-79
2023/04/16 08:14:21;;;;;;;27.05;12.18;;;9.10;99.90;;;;;;5017523;28;20045;-79
2023/04/16 08:16:47;;;;;;;30.08;11.20;;;9.20;99.90;;;;;;5002290;28;20079;-79
2023/04/16 08:19:13;;;;;;;27.65;11.85;;;9.20;99.90;;;;;;5018680;28;20042;-80
2023/04/16 08:21:39;;;;;;;32.22;11.73;;;9.20;99.90;;;;;;5017393;28;20042;-78
2023/04/16 08:24:05;;;;;;;24.58;10.98;;;9.20;99.90;;;;;;5015164;28;20064;-76
2023/04/16 08:26:31;;;;;;;21.00;11.38;;;9.30;99.90;;;;;;5015688;28;20041;-78
2023/04/16 08:28:59;;;;;;;21.95;9.57;;;9.20;99.90;;;;;;5000847;28;20057;-72
2023/04/16 08:31:28;;;;;;;25.60;11.73;;;9.30;99.90;;;;;;5029814;28;20376;-74
2023/04/16 08:33:54;;;;;;;25.83;10.57;;;9.30;99.90;;;;;;5015558;28;20095;-75
2023/04/16 08:36:20;;;;;;;20.63;10.88;;;9.30;99.90;;;;;;5019735;28;20519;-74
2023/04/16 08:38:51;;;;;;;27.10;10.68;;;9.40;99.90;;;;;;5022144;28;20088;-76
2023/04/16 08:41:17;;;;;;;25.23;10.25;;;9.40;99.90;;;;;;5020643;28;20057;-74
2023/04/16 08:43:46;;;;;;;23.90;10.40;;;9.40;99.90;;;;;;5021110;28;20071;-75
2023/04/16 08:46:13;;;;;;;23.00;9.27;;;9.40;99.90;;;;;;5021330;28;20049;-74
2023/04/16 08:48:42;;;;;;;22.73;9.95;;;9.50;99.90;;;;;;5019754;28;20057;-73
2023/04/16 08:51:09;;;;;;;21.70;10.25;;;9.50;99.90;;;;;;5018543;28;20387;-73
2023/04/16 08:53:51;;;;;;;25.95;11.18;;;9.50;99.90;;;;;;5018086;28;20448;-73
2023/04/16 08:56:20;;;;;;;26.08;11.23;;;9.60;99.90;;;;;;5021375;28;20111;-73
2023/04/16 08:58:48;;;;;;;22.40;10.95;;;9.60;99.90;;;;;;5019170;28;20435;-76
2023/04/16 09:01:17;;;;;;;25.88;10.32;;;9.70;99.90;;;;;;5018524;28;20042;-75
2023/04/16 09:03:48;;;;;;;26.38;11.18;;;9.70;99.90;;;;;;5005206;28;20592;-74
2023/04/16 09:06:15;;;;;;;18.52;10.10;;;9.80;99.90;;;;;;5018831;28;20726;-74
2023/04/16 09:08:47;;;;;;;22.00;10.82;;;9.80;99.90;;;;;;5002318;28;20369;-73
2023/04/16 09:11:16;;;;;;;26.65;9.80;;;10.40;99.90;;;;;;5001666;28;20049;-74
2023/04/16 09:13:42;;;;;;;25.65;11.10;;;9.90;99.90;;;;;;5004163;28;20072;-76
2023/04/16 09:16:12;;;;;;;21.45;9.90;;;10.00;99.90;;;;;;5018942;28;20050;-74
2023/04/16 09:18:37;;;;;;;21.58;9.75;;;10.00;99.90;;;;;;5019707;28;20088;-73
2023/04/16 09:21:04;;;;;;;25.13;10.35;;;10.10;99.90;;;;;;5020080;28;20583;-75
2023/04/16 09:23:31;;;;;;;25.80;10.52;;;10.10;99.90;;;;;;5019329;28;20057;-76
2023/04/16 09:25:59;;;;;;;18.27;9.00;;;10.10;99.90;;;;;;5017947;28;20199;-74
2023/04/16 09:28:39;;;;;;;21.02;9.20;;;10.20;99.90;;;;;;5018742;28;20614;-76
2023/04/16 09:31:17;;;;;;;23.75;9.20;;;10.20;99.90;;;;;;5035151;28;20120;-76
2023/04/16 09:33:59;;;;;;;22.55;9.77;;;10.30;99.90;;;;;;5021402;28;20404;-73
2023/04/16 09:36:31;;;;;;;20.95;8.80;;;10.30;99.90;;;;;;5030816;28;20507;-74
2023/04/16 09:38:58;;;;;;;19.20;8.55;;;10.40;99.90;;;;;;5033513;28;20060;-73
2023/04/16 09:41:30;;;;;;;17.70;8.35;;;10.40;99.90;;;;;;5020919;28;20064;-74
2023/04/16 09:44:03;;;;;;;19.02;8.65;;;10.50;99.90;;;;;;5018267;28;20646;-73
2023/04/16 09:46:42;;;;;;;23.17;9.63;;;10.50;99.90;;;;;;5015357;28;20126;-73
2023/04/16 09:49:16;;;;;;;19.38;9.10;;;10.60;99.90;;;;;;5017107;28;20076;-73
2023/04/16 09:51:44;;;;;;;17.58;9.18;;;10.60;99.90;;;;;;5018554;28;20053;-74
2023/04/16 09:54:10;;;;;;;24.27;8.98;;;10.60;99.90;;;;;;5020398;28;20041;-75
2023/04/16 09:56:47;;;;;;;23.25;10.18;;;10.70;99.90;;;;;;5035505;28;20128;-73
2023/04/16 09:59:21;;;;;;;22.77;10.10;;;10.80;99.90;;;;;;5016070;28;20388;-74
2023/04/16 10:01:55;;;;;;;20.05;9.25;;;10.80;99.90;;;;;;5032863;28;20149;-74
2023/04/16 10:04:23;;;;;;;17.65;8.60;;;10.90;99.90;;;;;;5034540;28;20045;-74
2023/04/16 10:07:06;;;;;;;18.50;8.93;;;10.90;99.90;;;;;;5016465;28;20052;-75
2023/04/16 10:09:39;;;;;;;22.58;8.43;;;10.90;99.90;;;;;;5033493;28;20124;-73
2023/04/16 10:12:06;;;;;;;26.15;9.00;;;11.00;99.90;;;;;;5000865;28;20053;-74
2023/04/16 10:14:33;;;;;;;19.63;9.05;;;11.00;99.90;;;;;;5017540;28;20092;-73
2023/04/16 10:16:59;;;;;;;19.50;8.52;;;11.00;99.90;;;;;;5016121;28;20119;-73
2023/04/16 10:19:26;;;;;;;16.77;8.77;;;11.10;99.90;;;;;;5002738;28;20423;-76
2023/04/16 10:21:55;;;;;;;21.25;9.65;;;11.10;99.90;;;;;;4996997;28;20053;-74
2023/04/16 10:24:21;;;;;;;22.65;9.40;;;11.10;99.90;;;;;;5018542;28;20045;-79
2023/04/16 10:26:50;;;;;;;19.90;10.07;;;11.20;99.90;;;;;;5000279;28;20140;-73
2023/04/16 10:29:17;;;;;;;21.15;9.50;;;11.30;99.90;;;;;;4996991;28;20050;-74
2023/04/16 10:31:44;;;;;;;18.40;8.50;;;10.50;99.90;;;;;;5005503;28;20404;-75
2023/04/16 10:34:11;;;;;;;24.55;9.23;;;11.50;99.90;;;;;;5017427;28;20056;-75
2023/04/16 10:36:39;;;;;;;27.50;9.77;;;11.50;99.90;;;;;;4996134;28;20059;-76
2023/04/16 10:39:12;;;;;;;19.13;8.25;;;11.50;99.90;;;;;;5016991;28;20045;-73
2023/04/16 10:41:41;;;;;;;17.30;8.60;;;11.50;99.90;;;;;;5033951;28;20053;-76
2023/04/16 10:44:09;;;;;;;23.15;9.25;;;11.50;99.90;;;;;;4997360;28;20115;-77
2023/04/16 10:46:42;;;;;;;18.08;8.20;;;11.60;99.90;;;;;;5034792;28;20124;-74
2023/04/16 10:49:22;;;;;;;17.08;8.88;;;10.60;99.90;;;;;;5018966;28;20132;-74
2023/04/16 10:51:59;;;;;;;20.60;9.52;;;11.60;99.90;;;;;;5016329;28;20038;-76
2023/04/16 10:54:35;;;;;;;18.85;9.25;;;11.60;99.90;;;;;;5015460;28;20045;-78
2023/04/16 10:57:11;;;;;;;19.60;8.77;;;11.60;99.90;;;;;;5016810;28;20505;-78
2023/04/16 10:59:44;;;;;;;20.55;9.02;;;11.60;99.90;;;;;;5019087;28;20128;-77
2023/04/16 11:02:18;;;;;;;17.83;9.05;;;11.70;99.90;;;;;;5002081;28;20088;-75
2023/04/16 11:04:47;;;;;;;16.45;9.25;;;11.60;99.90;;;;;;4996680;28;20041;-80
2023/04/16 11:07:36;;;;;;;18.70;9.10;;;11.50;99.90;;;;;;5013602;28;20042;-76
2023/04/16 11:10:04;;;;;;;21.23;9.80;;;11.50;99.90;;;;;;5015901;28;20061;-78
2023/04/16 11:12:40;;;;;;;18.65;9.20;;;11.50;99.90;;;;;;5016902;28;20128;-76
2023/04/16 11:15:32;;;;;;;24.48;10.50;;;11.50;99.90;;;;;;5017147;28;20121;-76
2023/04/16 11:18:01;;;;;;;19.30;9.88;;;11.40;99.90;;;;;;5016704;28;20069;-78
2023/04/16 11:20:28;;;;;;;18.75;10.02;;;11.40;99.90;;;;;;5033996;28;20045;-79
2023/04/16 11:22:55;;;;;;;15.60;10.15;;;12.30;99.90;;;;;;5001123;28;20064;-78
2023/04/16 11:25:25;;;;;;;18.20;10.63;;;11.50;99.90;;;;;;5013365;28;20051;-71
2023/04/16 11:27:57;;;;;;;19.80;10.45;;;11.50;99.90;;;;;;5031659;28;20053;-80
2023/04/16 11:30:53;;;;;;;18.27;10.00;;;11.60;99.90;;;;;;4987571;28;20049;-71
2023/04/16 11:33:18;;;;;;;17.73;9.15;;;11.60;99.90;;;;;;4991073;28;20061;-71
2023/04/16 11:35:54;;;;;;;20.02;10.43;;;11.60;99.90;;;;;;5018386;28;20404;-71
2023/04/16 11:38:31;;;;;;;15.68;9.13;;;11.70;99.90;;;;;;5015613;28;20080;-72
2023/04/16 11:40:56;;;;;;;16.63;10.70;;;11.80;99.90;;;;;;5016480;28;20405;-70
2023/04/16 11:43:25;;;;;;;19.27;11.20;;;11.90;99.90;;;;;;5018125;28;20073;-71
2023/04/16 11:45:59;;;;;;;20.20;10.90;;;11.80;99.90;;;;;;4985505;28;20133;-70
2023/04/16 11:48:45;;;;;;;18.30;10.25;;;12.00;99.90;;;;;;5018343;28;20056;-73
2023/04/16 11:51:11;;;;;;;20.65;10.30;;;12.10;99.90;;;;;;5017049;28;20053;-74
2023/04/16 11:53:55;;;;;;;18.35;11.07;;;12.10;99.90;;;;;;5016199;28;20958;-72
2023/04/16 11:56:36;;;;;;;17.30;10.43;;;12.20;99.90;;;;;;5017026;28;20045;-74
2023/04/16 11:59:07;;;;;;;18.25;10.18;;;12.30;99.90;;;;;;5020029;28;20136;-69
2023/04/16 12:01:34;;;;;;;14.85;9.77;;;12.30;99.90;;;;;;5016252;28;20048;-73
2023/04/16 12:04:01;;;;;;;16.77;10.02;;;12.40;99.90;;;;;;5019559;28;20044;-73
2023/04/16 12:06:27;;;;;;;16.88;10.23;;;12.50;99.90;;;;;;5015681;28;20061;-72
2023/04/16 12:08:53;;;;;;;18.90;10.55;;;12.50;99.90;;;;;;5016729;28;20076;-70
2023/04/16 12:11:38;;;;;;;16.00;10.40;;;12.50;99.90;;;;;;5032437;28;20583;-74
2023/04/16 12:14:11;;;;;;;15.38;10.00;;;12.60;99.90;;;;;;5004290;28;20414;-80
2023/04/16 12:16:40;;;;;;;16.20;9.82;;;12.60;99.90;;;;;;5023860;28;20045;-86
2023/04/16 12:19:11;;;;;;;19.17;10.40;;;12.60;99.90;;;;;;5023446;28;20606;-77
2023/04/16 12:21:47;;;;;;;13.88;10.35;;;12.60;99.90;;;;;;5008227;28;20046;-78
2023/04/16 12:24:15;;;;;;;16.85;11.00;;;12.60;99.90;;;;;;5021619;28;20128;-80
2023/04/16 12:26:47;;;;;;;15.85;11.07;;;12.60;99.90;;;;;;5020161;28;20060;-75
2023/04/16 12:29:37;;;;;;;18.85;12.02;;;12.50;99.90;;;;;;5034457;28;20064;-84
2023/04/16 12:32:03;;;;;;;18.50;10.82;;;12.50;99.90;;;;;;5016315;28;20053;-76
2023/04/16 12:34:29;;;;;;;18.10;11.23;;;12.50;99.90;;;;;;5033482;28;20085;-76
2023/04/16 12:37:11;;;;;;;20.35;12.02;;;12.50;99.90;;;;;;5032396;28;20125;-74
2023/04/16 12:39:50;;;;;;;20.35;12.23;;;12.40;99.90;;;;;;5000671;28;20076;-75
2023/04/16 12:42:15;;;;;;;20.02;13.57;;;12.30;99.90;;;;;;5018622;28;20142;-71
2023/04/16 12:44:42;;;;;;;20.80;13.35;;;12.30;99.90;;;;;;5016936;28;20073;-74
2023/04/16 12:47:14;;;;;;;26.58;14.68;;;12.20;99.90;;;;;;5032763;28;20037;-73
2023/04/16 12:49:43;;;;;;;28.90;14.85;;;12.20;99.90;;;;;;5030627;28;20061;-72
2023/04/16 12:52:17;;;;;;;24.67;14.23;;;12.10;99.90;;;;;;5003190;28;20073;-78
2023/04/16 12:54:58;;;;;;;21.02;13.27;;;12.10;99.90;;;;;;5018049;28;20073;-78
2023/04/16 12:57:27;;;;;;;23.13;13.88;;;12.00;99.90;;;;;;5015737;28;20116;-77
2023/04/16 12:59:57;;;;;;;29.98;14.68;;;12.00;99.90;;;;;;5012800;28;20049;-78